sensor_id;sensor_type;location;lat;lon;timestamp;pressure;altitude;pressure_sealevel;temperature;humidity
50859;BME280;36826;47.514;19.056;2022-09-23T00:00:12;100510.78;;;26.63;45.26
50859;BME280;36826;47.514;19.056;2022-09-23T00:02:37;100511.72;;;26.57;45.42
50859;BME280;36826;47.514;19.056;2022-09-23T00:05:03;100515.53;;;26.56;45.17
50859;BME280;36826;47.514;19.056;2022-09-23T00:07:29;100513.38;;;26.58;45.19
50859;BME280;36826;47.514;19.056;2022-09-23T00:09:55;100513.38;;;26.58;45.33
50859;BME280;36826;47.514;19.056;2022-09-23T00:12:21;100512.94;;;26.61;45.29
50859;BME280;36826;47.514;19.056;2022-09-23T00:14:46;100507.91;;;26.58;45.33
50859;BME280;36826;47.514;19.056;2022-09-23T00:17:12;100511.25;;;26.60;45.19
50859;BME280;36826;47.514;19.056;2022-09-23T00:19:38;100514.00;;;26.60;45.26
50859;BME280;36826;47.514;19.056;2022-09-23T00:22:04;100513.84;;;26.55;45.30
50859;BME280;36826;47.514;19.056;2022-09-23T00:24:30;100502.88;;;26.55;45.57
50859;BME280;36826;47.514;19.056;2022-09-23T00:26:58;100498.72;;;26.64;45.53
50859;BME280;36826;47.514;19.056;2022-09-23T00:29:23;100494.78;;;26.60;45.45
50859;BME280;36826;47.514;19.056;2022-09-23T00:31:49;100504.53;;;26.56;45.38
50859;BME280;36826;47.514;19.056;2022-09-23T00:34:14;100505.63;;;26.55;45.55
50859;BME280;36826;47.514;19.056;2022-09-23T00:36:41;100498.19;;;26.44;45.76
50859;BME280;36826;47.514;19.056;2022-09-23T00:39:07;100499.13;;;26.38;45.49
50859;BME280;36826;47.514;19.056;2022-09-23T00:41:34;100494.59;;;26.43;45.96
50859;BME280;36826;47.514;19.056;2022-09-23T00:44:37;100492.94;;;26.42;46.02
50859;BME280;36826;47.514;19.056;2022-09-23T00:46:47;100486.72;;;26.47;45.46
50859;BME280;36826;47.514;19.056;2022-09-23T00:49:27;100482.38;;;26.70;45.27
50859;BME280;36826;47.514;19.056;2022-09-23T00:51:59;100487.75;;;26.64;45.22
50859;BME280;36826;47.514;19.056;2022-09-23T00:54:26;100479.81;;;26.56;45.30
50859;BME280;36826;47.514;19.056;2022-09-23T00:56:54;100489.28;;;26.60;45.52
50859;BME280;36826;47.514;19.056;2022-09-23T00:59:20;100486.38;;;26.55;45.59
50859;BME280;36826;47.514;19.056;2022-09-23T01:01:48;100490.81;;;26.56;45.73
50859;BME280;36826;47.514;19.056;2022-09-23T01:04:19;100488.53;;;26.53;45.76
50859;BME280;36826;47.514;19.056;2022-09-23T01:06:47;100489.13;;;26.55;45.62
50859;BME280;36826;47.514;19.056;2022-09-23T01:09:13;100491.06;;;26.55;45.28
50859;BME280;36826;47.514;19.056;2022-09-23T01:16:44;100498.69;;;26.53;45.59
50859;BME280;36826;47.514;19.056;2022-09-23T01:19:38;100493.75;;;26.43;46.16
50859;BME280;36826;47.514;19.056;2022-09-23T01:22:32;100499.25;;;26.43;45.91
50859;BME280;36826;47.514;19.056;2022-09-23T01:30:55;100479.31;;;26.47;45.43
50859;BME280;36826;47.514;19.056;2022-09-23T01:38:58;100490.41;;;26.41;45.27
50859;BME280;36826;47.514;19.056;2022-09-23T01:41:51;100480.63;;;26.45;45.08
50859;BME280;36826;47.514;19.056;2022-09-23T01:44:34;100495.16;;;26.33;45.30
50859;BME280;36826;47.514;19.056;2022-09-23T01:52:29;100477.78;;;26.40;45.66
50859;BME280;36826;47.514;19.056;2022-09-23T01:55:12;100481.94;;;26.42;45.14
50859;BME280;36826;47.514;19.056;2022-09-23T01:57:44;100480.72;;;26.38;45.19
50859;BME280;36826;47.514;19.056;2022-09-23T02:00:16;100485.31;;;26.44;45.27
50859;BME280;36826;47.514;19.056;2022-09-23T02:02:50;100482.78;;;26.43;45.33
50859;BME280;36826;47.514;19.056;2022-09-23T02:05:31;100479.56;;;26.46;45.25
50859;BME280;36826;47.514;19.056;2022-09-23T02:08:12;100483.16;;;26.46;45.17
50859;BME280;36826;47.514;19.056;2022-09-23T02:10:42;100482.16;;;26.41;45.44
50859;BME280;36826;47.514;19.056;2022-09-23T02:13:15;100480.16;;;26.48;45.12
50859;BME280;36826;47.514;19.056;2022-09-23T02:15:50;100478.50;;;26.47;45.27
50859;BME280;36826;47.514;19.056;2022-09-23T02:18:29;100483.53;;;26.50;45.06
50859;BME280;36826;47.514;19.056;2022-09-23T02:21:00;100480.13;;;26.36;45.47
50859;BME280;36826;47.514;19.056;2022-09-23T02:23:33;100480.53;;;26.40;45.18
50859;BME280;36826;47.514;19.056;2022-09-23T02:32:00;100469.44;;;26.58;44.70
50859;BME280;36826;47.514;19.056;2022-09-23T02:37:46;100466.69;;;26.58;44.73
50859;BME280;36826;47.514;19.056;2022-09-23T02:45:10;100478.16;;;26.55;44.63
50859;BME280;36826;47.514;19.056;2022-09-23T02:47:37;100480.56;;;26.63;44.86
50859;BME280;36826;47.514;19.056;2022-09-23T02:50:05;100479.47;;;26.53;44.65
50859;BME280;36826;47.514;19.056;2022-09-23T02:52:31;100476.00;;;26.57;44.97
50859;BME280;36826;47.514;19.056;2022-09-23T02:54:58;100473.00;;;26.47;44.94
50859;BME280;36826;47.514;19.056;2022-09-23T02:57:25;100472.53;;;26.50;45.06
50859;BME280;36826;47.514;19.056;2022-09-23T02:59:50;100477.66;;;26.46;45.08
50859;BME280;36826;47.514;19.056;2022-09-23T03:05:18;100476.66;;;26.71;44.71
50859;BME280;36826;47.514;19.056;2022-09-23T03:08:10;100485.81;;;26.65;44.91
50859;BME280;36826;47.514;19.056;2022-09-23T03:11:03;100479.22;;;26.54;45.35
50859;BME280;36826;47.514;19.056;2022-09-23T03:13:39;100476.97;;;26.51;45.41
50859;BME280;36826;47.514;19.056;2022-09-23T03:16:14;100478.22;;;26.37;45.53
50859;BME280;36826;47.514;19.056;2022-09-23T03:18:50;100480.78;;;26.50;45.01
50859;BME280;36826;47.514;19.056;2022-09-23T03:23:49;100479.41;;;26.41;45.17
50859;BME280;36826;47.514;19.056;2022-09-23T03:26:23;100478.63;;;26.52;45.12
50859;BME280;36826;47.514;19.056;2022-09-23T03:28:52;100480.28;;;26.41;45.11
50859;BME280;36826;47.514;19.056;2022-09-23T03:31:18;100476.19;;;26.32;45.20
50859;BME280;36826;47.514;19.056;2022-09-23T03:33:53;100482.31;;;26.46;44.62
50859;BME280;36826;47.514;19.056;2022-09-23T03:36:31;100486.13;;;26.45;45.04
50859;BME280;36826;47.514;19.056;2022-09-23T03:39:42;100487.81;;;26.46;44.83
50859;BME280;36826;47.514;19.056;2022-09-23T03:42:18;100487.06;;;26.39;45.22
50859;BME280;36826;47.514;19.056;2022-09-23T03:44:46;100482.97;;;26.29;45.57
50859;BME280;36826;47.514;19.056;2022-09-23T03:47:13;100484.28;;;26.27;45.42
50859;BME280;36826;47.514;19.056;2022-09-23T03:49:42;100477.47;;;26.29;45.41
50859;BME280;36826;47.514;19.056;2022-09-23T03:52:08;100479.50;;;26.22;45.94
50859;BME280;36826;47.514;19.056;2022-09-23T03:54:33;100473.72;;;26.12;46.31
50859;BME280;36826;47.514;19.056;2022-09-23T03:57:00;100475.97;;;26.15;46.03
50859;BME280;36826;47.514;19.056;2022-09-23T03:59:26;100477.72;;;26.09;45.95
50859;BME280;36826;47.514;19.056;2022-09-23T04:01:52;100486.97;;;26.15;46.03
50859;BME280;36826;47.514;19.056;2022-09-23T04:04:18;100483.22;;;26.09;45.90
50859;BME280;36826;47.514;19.056;2022-09-23T04:06:44;100483.53;;;26.01;46.20
50859;BME280;36826;47.514;19.056;2022-09-23T04:09:10;100479.97;;;26.00;46.06
50859;BME280;36826;47.514;19.056;2022-09-23T04:11:35;100488.22;;;26.00;45.77
50859;BME280;36826;47.514;19.056;2022-09-23T04:14:01;100483.28;;;26.02;45.83
50859;BME280;36826;47.514;19.056;2022-09-23T04:16:27;100488.28;;;25.94;45.94
50859;BME280;36826;47.514;19.056;2022-09-23T04:18:52;100482.88;;;25.87;45.78
50859;BME280;36826;47.514;19.056;2022-09-23T04:21:18;100487.75;;;25.85;46.28
50859;BME280;36826;47.514;19.056;2022-09-23T04:23:43;100487.75;;;25.85;46.29
50859;BME280;36826;47.514;19.056;2022-09-23T04:26:11;100485.03;;;25.85;46.22
50859;BME280;36826;47.514;19.056;2022-09-23T04:28:36;100490.19;;;25.93;45.76
50859;BME280;36826;47.514;19.056;2022-09-23T04:31:03;100491.69;;;26.08;45.86
50859;BME280;36826;47.514;19.056;2022-09-23T04:33:29;100485.47;;;26.00;45.84
50859;BME280;36826;47.514;19.056;2022-09-23T04:35:55;100488.78;;;26.02;45.63
50859;BME280;36826;47.514;19.056;2022-09-23T04:38:20;100495.34;;;26.01;45.74
50859;BME280;36826;47.514;19.056;2022-09-23T04:40:46;100490.94;;;26.00;45.57
50859;BME280;36826;47.514;19.056;2022-09-23T04:43:12;100492.47;;;25.78;45.92
50859;BME280;36826;47.514;19.056;2022-09-23T04:45:38;100494.22;;;25.72;46.21
50859;BME280;36826;47.514;19.056;2022-09-23T04:48:04;100499.50;;;25.73;46.13
50859;BME280;36826;47.514;19.056;2022-09-23T04:50:31;100492.31;;;25.91;45.91
50859;BME280;36826;47.514;19.056;2022-09-23T04:52:58;100494.53;;;25.82;45.67
50859;BME280;36826;47.514;19.056;2022-09-23T04:55:23;100501.31;;;25.80;45.97
50859;BME280;36826;47.514;19.056;2022-09-23T04:57:48;100499.81;;;25.84;46.21
50859;BME280;36826;47.514;19.056;2022-09-23T05:00:14;100499.63;;;25.79;46.31
50859;BME280;36826;47.514;19.056;2022-09-23T05:02:44;100502.69;;;25.89;46.18
50859;BME280;36826;47.514;19.056;2022-09-23T05:05:10;100499.63;;;25.79;46.25
50859;BME280;36826;47.514;19.056;2022-09-23T05:07:35;100503.69;;;25.95;46.15
50859;BME280;36826;47.514;19.056;2022-09-23T05:10:00;100505.25;;;26.02;45.79
50859;BME280;36826;47.514;19.056;2022-09-23T05:12:26;100508.59;;;26.04;45.67
50859;BME280;36826;47.514;19.056;2022-09-23T05:14:51;100516.03;;;26.04;46.14
50859;BME280;36826;47.514;19.056;2022-09-23T05:17:16;100509.47;;;26.05;45.86
50859;BME280;36826;47.514;19.056;2022-09-23T05:19:42;100510.66;;;26.09;45.79
50859;BME280;36826;47.514;19.056;2022-09-23T05:22:07;100513.41;;;26.09;45.88
50859;BME280;36826;47.514;19.056;2022-09-23T05:24:33;100517.31;;;26.01;46.27
50859;BME280;36826;47.514;19.056;2022-09-23T05:26:58;100521.72;;;26.02;45.91
50859;BME280;36826;47.514;19.056;2022-09-23T05:29:25;100526.75;;;26.06;45.96
50859;BME280;36826;47.514;19.056;2022-09-23T05:31:50;100525.94;;;26.05;45.96
50859;BME280;36826;47.514;19.056;2022-09-23T05:34:15;100528.88;;;26.03;45.97
50859;BME280;36826;47.514;19.056;2022-09-23T05:36:42;100525.31;;;26.03;46.02
50859;BME280;36826;47.514;19.056;2022-09-23T05:39:08;100527.56;;;26.13;46.19
50859;BME280;36826;47.514;19.056;2022-09-23T05:41:33;100531.31;;;26.30;46.16
50859;BME280;36826;47.514;19.056;2022-09-23T05:44:00;100527.19;;;26.40;46.39
50859;BME280;36826;47.514;19.056;2022-09-23T05:46:28;100527.56;;;26.43;45.98
50859;BME280;36826;47.514;19.056;2022-09-23T05:48:55;100524.44;;;26.40;45.93
50859;BME280;36826;47.514;19.056;2022-09-23T05:51:23;100522.53;;;26.40;45.93
50859;BME280;36826;47.514;19.056;2022-09-23T05:53:50;100530.41;;;26.37;45.64
50859;BME280;36826;47.514;19.056;2022-09-23T05:56:17;100528.38;;;26.44;45.49
50859;BME280;36826;47.514;19.056;2022-09-23T05:58:43;100534.06;;;26.30;45.91
50859;BME280;36826;47.514;19.056;2022-09-23T06:01:11;100532.69;;;26.40;45.92
50859;BME280;36826;47.514;19.056;2022-09-23T06:03:37;100535.28;;;26.34;45.76
50859;BME280;36826;47.514;19.056;2022-09-23T06:06:03;100540.78;;;26.34;44.92
50859;BME280;36826;47.514;19.056;2022-09-23T06:08:28;100528.56;;;26.30;44.57
50859;BME280;36826;47.514;19.056;2022-09-23T06:10:54;100515.81;;;26.36;44.14
50859;BME280;36826;47.514;19.056;2022-09-23T06:13:20;100525.97;;;26.36;44.05
50859;BME280;36826;47.514;19.056;2022-09-23T06:15:45;100530.53;;;26.42;43.95
50859;BME280;36826;47.514;19.056;2022-09-23T06:18:11;100534.81;;;26.38;43.90
50859;BME280;36826;47.514;19.056;2022-09-23T06:20:37;100534.34;;;26.41;44.01
50859;BME280;36826;47.514;19.056;2022-09-23T06:23:04;100530.56;;;26.54;43.86
50859;BME280;36826;47.514;19.056;2022-09-23T06:25:32;100530.34;;;26.55;43.83
50859;BME280;36826;47.514;19.056;2022-09-23T06:27:57;100537.78;;;26.36;43.95
50859;BME280;36826;47.514;19.056;2022-09-23T06:30:24;100537.31;;;26.39;44.12
50859;BME280;36826;47.514;19.056;2022-09-23T06:32:53;100532.09;;;26.49;44.02
50859;BME280;36826;47.514;19.056;2022-09-23T06:35:21;100539.06;;;26.52;44.21
50859;BME280;36826;47.514;19.056;2022-09-23T06:37:47;100549.91;;;26.47;44.40
50859;BME280;36826;47.514;19.056;2022-09-23T06:40:12;100537.38;;;26.51;44.45
50859;BME280;36826;47.514;19.056;2022-09-23T06:42:39;100543.59;;;26.58;44.39
50859;BME280;36826;47.514;19.056;2022-09-23T06:45:05;100540.84;;;26.58;44.38
50859;BME280;36826;47.514;19.056;2022-09-23T06:47:30;100545.44;;;26.64;44.32
50859;BME280;36826;47.514;19.056;2022-09-23T06:49:56;100550.44;;;26.68;44.33
50859;BME280;36826;47.514;19.056;2022-09-23T06:52:21;100560.50;;;26.74;44.22
50859;BME280;36826;47.514;19.056;2022-09-23T06:54:47;100556.69;;;26.75;44.16
50859;BME280;36826;47.514;19.056;2022-09-23T06:57:13;100552.88;;;26.76;44.14
50859;BME280;36826;47.514;19.056;2022-09-23T06:59:38;100556.84;;;26.80;43.76
50859;BME280;36826;47.514;19.056;2022-09-23T07:02:04;100548.13;;;26.83;43.89
50859;BME280;36826;47.514;19.056;2022-09-23T07:04:29;100555.75;;;26.81;43.74
50859;BME280;36826;47.514;19.056;2022-09-23T07:06:55;100556.97;;;26.85;43.84
50859;BME280;36826;47.514;19.056;2022-09-23T07:09:20;100553.31;;;26.91;43.69
50859;BME280;36826;47.514;19.056;2022-09-23T07:11:46;100562.13;;;26.93;43.50
50859;BME280;36826;47.514;19.056;2022-09-23T07:14:11;100555.56;;;26.94;43.34
50859;BME280;36826;47.514;19.056;2022-09-23T07:16:38;100552.09;;;26.87;43.21
50859;BME280;36826;47.514;19.056;2022-09-23T07:19:03;100554.25;;;26.97;42.67
50859;BME280;36826;47.514;19.056;2022-09-23T07:21:29;100564.88;;;26.93;43.17
50859;BME280;36826;47.514;19.056;2022-09-23T07:23:54;100562.19;;;27.17;42.66
50859;BME280;36826;47.514;19.056;2022-09-23T07:26:23;100560.41;;;27.23;42.52
50859;BME280;36826;47.514;19.056;2022-09-23T07:28:53;100562.25;;;26.99;42.71
50859;BME280;36826;47.514;19.056;2022-09-23T07:31:19;100559.88;;;26.90;42.19
50859;BME280;36826;47.514;19.056;2022-09-23T07:33:45;100561.16;;;26.88;42.36
50859;BME280;36826;47.514;19.056;2022-09-23T07:36:18;100565.72;;;26.94;42.54
50859;BME280;36826;47.514;19.056;2022-09-23T07:38:44;100559.38;;;26.93;42.57
50859;BME280;36826;47.514;19.056;2022-09-23T07:41:15;100553.41;;;26.97;42.65
50859;BME280;36826;47.514;19.056;2022-09-23T07:43:41;100556.91;;;27.16;42.12
50859;BME280;36826;47.514;19.056;2022-09-23T07:46:09;100566.22;;;27.03;42.54
50859;BME280;36826;47.514;19.056;2022-09-23T07:48:36;100556.16;;;26.97;42.68
50859;BME280;36826;47.514;19.056;2022-09-23T07:51:09;100556.09;;;27.15;42.46
50859;BME280;36826;47.514;19.056;2022-09-23T07:53:35;100546.88;;;27.09;41.80
50859;BME280;36826;47.514;19.056;2022-09-23T07:56:02;100557.25;;;27.19;42.10
50859;BME280;36826;47.514;19.056;2022-09-23T07:58:30;100558.72;;;27.34;41.67
50859;BME280;36826;47.514;19.056;2022-09-23T08:01:01;100561.59;;;27.39;41.71
50859;BME280;36826;47.514;19.056;2022-09-23T08:03:26;100555.38;;;27.20;41.64
50859;BME280;36826;47.514;19.056;2022-09-23T08:05:51;100562.41;;;27.04;42.04
50859;BME280;36826;47.514;19.056;2022-09-23T08:08:17;100555.91;;;26.98;42.22
50859;BME280;36826;47.514;19.056;2022-09-23T08:10:42;100558.09;;;26.96;42.28
50859;BME280;36826;47.514;19.056;2022-09-23T08:13:08;100561.06;;;26.94;42.64
50859;BME280;36826;47.514;19.056;2022-09-23T08:15:34;100562.25;;;26.99;42.09
50859;BME280;36826;47.514;19.056;2022-09-23T08:17:59;100554.25;;;26.97;42.00
50859;BME280;36826;47.514;19.056;2022-09-23T08:20:26;100557.13;;;27.02;42.22
50859;BME280;36826;47.514;19.056;2022-09-23T08:23:11;100555.22;;;27.03;42.05
50859;BME280;36826;47.514;19.056;2022-09-23T08:25:43;100552.13;;;27.11;42.10
50859;BME280;36826;47.514;19.056;2022-09-23T08:28:15;100549.38;;;27.11;42.50
50859;BME280;36826;47.514;19.056;2022-09-23T08:30:43;100553.81;;;27.12;42.17
50859;BME280;36826;47.514;19.056;2022-09-23T08:33:10;100542.81;;;27.12;41.68
50859;BME280;36826;47.514;19.056;2022-09-23T08:35:36;100549.50;;;27.28;41.64
50859;BME280;36826;47.514;19.056;2022-09-23T08:38:02;100545.09;;;27.15;42.14
50859;BME280;36826;47.514;19.056;2022-09-23T08:40:27;100543.06;;;27.10;42.08
50859;BME280;36826;47.514;19.056;2022-09-23T08:42:53;100545.09;;;27.15;41.98
50859;BME280;36826;47.514;19.056;2022-09-23T08:45:24;100543.41;;;27.26;41.60
50859;BME280;36826;47.514;19.056;2022-09-23T08:48:24;100538.38;;;27.35;41.56
50859;BME280;36826;47.514;19.056;2022-09-23T08:50:54;100545.22;;;27.32;42.32
50859;BME280;36826;47.514;19.056;2022-09-23T08:53:26;100543.88;;;27.35;42.00
50859;BME280;36826;47.514;19.056;2022-09-23T08:55:54;100541.47;;;27.38;41.67
50859;BME280;36826;47.514;19.056;2022-09-23T09:03:54;100542.00;;;27.47;41.03
50859;BME280;36826;47.514;19.056;2022-09-23T09:06:25;100538.88;;;27.44;41.41
50859;BME280;36826;47.514;19.056;2022-09-23T09:08:55;100538.78;;;27.50;41.19
50859;BME280;36826;47.514;19.056;2022-09-23T09:11:25;100542.72;;;27.54;41.19
50859;BME280;36826;47.514;19.056;2022-09-23T09:15:00;100535.03;;;27.56;40.67
50859;BME280;36826;47.514;19.056;2022-09-23T09:17:12;100539.03;;;27.49;41.06
50859;BME280;36826;47.514;19.056;2022-09-23T09:19:53;100540.19;;;27.53;41.50
50859;BME280;36826;47.514;19.056;2022-09-23T09:22:27;100530.53;;;27.50;40.95
50859;BME280;36826;47.514;19.056;2022-09-23T09:25:49;100537.22;;;27.54;41.02
50859;BME280;36826;47.514;19.056;2022-09-23T09:27:49;100531.84;;;27.48;41.42
50859;BME280;36826;47.514;19.056;2022-09-23T09:30:16;100529.31;;;27.46;41.13
50859;BME280;36826;47.514;19.056;2022-09-23T09:33:02;100521.88;;;27.59;40.82
50859;BME280;36826;47.514;19.056;2022-09-23T09:35:37;100525.25;;;27.61;40.73
50859;BME280;36826;47.514;19.056;2022-09-23T09:38:05;100523.81;;;27.46;41.71
50859;BME280;36826;47.514;19.056;2022-09-23T09:40:32;100528.97;;;27.54;41.24
50859;BME280;36826;47.514;19.056;2022-09-23T09:43:00;100522.41;;;27.55;41.32
50859;BME280;36826;47.514;19.056;2022-09-23T09:46:00;100513.75;;;27.64;41.35
50859;BME280;36826;47.514;19.056;2022-09-23T09:48:37;100518.44;;;27.51;41.73
50859;BME280;36826;47.514;19.056;2022-09-23T09:51:24;100514.59;;;27.64;41.20
50859;BME280;36826;47.514;19.056;2022-09-23T09:53:52;100514.16;;;27.55;41.17
50859;BME280;36826;47.514;19.056;2022-09-23T09:56:24;100507.41;;;27.63;40.72
50859;BME280;36826;47.514;19.056;2022-09-23T09:59:08;100494.75;;;27.62;40.87
50859;BME280;36826;47.514;19.056;2022-09-23T10:01:37;100500.88;;;27.52;40.92
50859;BME280;36826;47.514;19.056;2022-09-23T10:04:20;100492.34;;;27.66;40.80
50859;BME280;36826;47.514;19.056;2022-09-23T10:07:11;100496.78;;;27.67;40.89
50859;BME280;36826;47.514;19.056;2022-09-23T10:09:39;100502.75;;;27.64;40.94
50859;BME280;36826;47.514;19.056;2022-09-23T10:12:22;100489.00;;;27.64;40.75
50859;BME280;36826;47.514;19.056;2022-09-23T10:14:58;100500.94;;;27.69;41.84
50859;BME280;36826;47.514;19.056;2022-09-23T10:17:32;100493.78;;;27.68;41.57
50859;BME280;36826;47.514;19.056;2022-09-23T10:20:07;100495.78;;;27.73;42.44
50859;BME280;36826;47.514;19.056;2022-09-23T10:22:36;100500.00;;;27.64;43.37
50859;BME280;36826;47.514;19.056;2022-09-23T10:25:14;100496.78;;;27.67;43.31
50859;BME280;36826;47.514;19.056;2022-09-23T10:27:41;100496.53;;;27.56;43.19
50859;BME280;36826;47.514;19.056;2022-09-23T10:30:27;100492.94;;;27.68;42.63
50859;BME280;36826;47.514;19.056;2022-09-23T10:32:53;100498.81;;;27.60;42.17
50859;BME280;36826;47.514;19.056;2022-09-23T10:35:22;100498.22;;;27.58;42.02
50859;BME280;36826;47.514;19.056;2022-09-23T10:37:56;100484.81;;;27.61;41.91
50859;BME280;36826;47.514;19.056;2022-09-23T10:46:27;100484.09;;;27.66;41.96
50859;BME280;36826;47.514;19.056;2022-09-23T10:49:50;100483.63;;;27.69;41.53
50859;BME280;36826;47.514;19.056;2022-09-23T11:06:28;100471.22;;;27.54;41.30
50859;BME280;36826;47.514;19.056;2022-09-23T11:10:57;100465.91;;;27.65;41.13
50859;BME280;36826;47.514;19.056;2022-09-23T11:13:49;100471.47;;;27.82;40.62
50859;BME280;36826;47.514;19.056;2022-09-23T11:16:39;100458.53;;;27.82;40.36
50859;BME280;36826;47.514;19.056;2022-09-23T11:31:04;100442.84;;;27.42;41.17
50859;BME280;36826;47.514;19.056;2022-09-23T11:36:14;100430.66;;;27.38;41.18
50859;BME280;36826;47.514;19.056;2022-09-23T11:38:45;100437.22;;;27.37;41.27
50859;BME280;36826;47.514;19.056;2022-09-23T11:41:18;100435.06;;;27.39;41.57
50859;BME280;36826;47.514;19.056;2022-09-23T11:43:48;100436.03;;;27.33;41.71
50859;BME280;36826;47.514;19.056;2022-09-23T11:46:36;100438.91;;;27.38;41.13
50859;BME280;36826;47.514;19.056;2022-09-23T11:52:14;100423.97;;;27.34;41.12
50859;BME280;36826;47.514;19.056;2022-09-23T11:54:52;100423.44;;;27.61;40.97
50859;BME280;36826;47.514;19.056;2022-09-23T11:57:34;100428.94;;;27.73;40.69
50859;BME280;36826;47.514;19.056;2022-09-23T12:00:06;100426.41;;;27.71;40.34
50859;BME280;36826;47.514;19.056;2022-09-23T12:05:37;100420.34;;;27.69;40.74
50859;BME280;36826;47.514;19.056;2022-09-23T12:08:24;100417.06;;;27.72;40.18
50859;BME280;36826;47.514;19.056;2022-09-23T12:21:49;100409.50;;;27.50;40.33
50859;BME280;36826;47.514;19.056;2022-09-23T12:24:46;100401.72;;;27.47;40.49
50859;BME280;36826;47.514;19.056;2022-09-23T12:29:56;100395.78;;;27.15;41.23
50859;BME280;36826;47.514;19.056;2022-09-23T12:32:23;100397.69;;;27.02;41.12
50859;BME280;36826;47.514;19.056;2022-09-23T12:34:50;100393.19;;;26.96;41.64
50859;BME280;36826;47.514;19.056;2022-09-23T12:37:36;100396.50;;;27.10;40.98
50859;BME280;36826;47.514;19.056;2022-09-23T12:40:29;100376.78;;;27.13;41.17
50859;BME280;36826;47.514;19.056;2022-09-23T12:42:56;100378.59;;;26.95;41.75
50859;BME280;36826;47.514;19.056;2022-09-23T12:51:15;100377.97;;;27.17;40.61
50859;BME280;36826;47.514;19.056;2022-09-23T13:03:56;100367.06;;;27.22;40.41
50859;BME280;36826;47.514;19.056;2022-09-23T13:06:41;100361.03;;;26.97;40.61
50859;BME280;36826;47.514;19.056;2022-09-23T13:09:16;100361.50;;;27.17;40.58
50859;BME280;36826;47.514;19.056;2022-09-23T13:11:44;100363.78;;;26.97;41.00
50859;BME280;36826;47.514;19.056;2022-09-23T13:14:14;100356.13;;;26.99;41.13
50859;BME280;36826;47.514;19.056;2022-09-23T13:16:44;100357.69;;;26.94;41.57
50859;BME280;36826;47.514;19.056;2022-09-23T13:27:03;100358.41;;;27.02;41.23
50859;BME280;36826;47.514;19.056;2022-09-23T13:32:02;100353.03;;;26.95;40.90
50859;BME280;36826;47.514;19.056;2022-09-23T13:34:31;100356.13;;;26.99;41.25
50859;BME280;36826;47.514;19.056;2022-09-23T13:36:57;100347.41;;;26.90;41.18
50859;BME280;36826;47.514;19.056;2022-09-23T13:39:27;100347.28;;;26.97;40.88
50859;BME280;36826;47.514;19.056;2022-09-23T13:41:59;100343.72;;;26.96;40.69
50859;BME280;36826;47.514;19.056;2022-09-23T13:44:26;100345.13;;;26.87;41.39
50859;BME280;36826;47.514;19.056;2022-09-23T13:46:58;100340.38;;;26.94;41.36
50859;BME280;36826;47.514;19.056;2022-09-23T13:49:34;100339.16;;;27.02;40.57
50859;BME280;36826;47.514;19.056;2022-09-23T13:52:01;100335.81;;;26.88;41.60
50859;BME280;36826;47.514;19.056;2022-09-23T13:54:49;100337.00;;;27.04;40.81
50859;BME280;36826;47.514;19.056;2022-09-23T13:57:33;100339.25;;;27.07;41.02
50859;BME280;36826;47.514;19.056;2022-09-23T14:00:16;100335.91;;;27.05;41.04
50859;BME280;36826;47.514;19.056;2022-09-23T14:02:43;100338.34;;;26.89;41.60
50859;BME280;36826;47.514;19.056;2022-09-23T14:05:11;100331.81;;;27.19;40.95
50859;BME280;36826;47.514;19.056;2022-09-23T14:07:37;100340.72;;;26.98;40.98
50859;BME280;36826;47.514;19.056;2022-09-23T14:10:04;100330.28;;;27.11;41.02
50859;BME280;36826;47.514;19.056;2022-09-23T14:12:30;100331.50;;;27.04;40.82
50859;BME280;36826;47.514;19.056;2022-09-23T14:14:56;100324.34;;;27.03;41.05
50859;BME280;36826;47.514;19.056;2022-09-23T14:17:22;100316.22;;;26.96;41.75
50859;BME280;36826;47.514;19.056;2022-09-23T14:19:48;100323.03;;;26.93;41.89
50859;BME280;36826;47.514;19.056;2022-09-23T14:22:26;100317.78;;;27.04;41.66
50859;BME280;36826;47.514;19.056;2022-09-23T14:24:53;100314.03;;;26.98;42.62
50859;BME280;36826;47.514;19.056;2022-09-23T14:27:30;100316.19;;;27.08;41.54
50859;BME280;36826;47.514;19.056;2022-09-23T14:29:56;100310.00;;;27.01;42.84
50859;BME280;36826;47.514;19.056;2022-09-23T14:32:24;100307.13;;;26.95;43.15
50859;BME280;36826;47.514;19.056;2022-09-23T14:35:25;100310.47;;;27.09;41.82
50859;BME280;36826;47.514;19.056;2022-09-23T14:37:53;100306.78;;;27.04;41.99
50859;BME280;36826;47.514;19.056;2022-09-23T14:40:57;100315.84;;;26.92;42.21
50859;BME280;36826;47.514;19.056;2022-09-23T14:46:20;100305.13;;;26.79;42.82
50859;BME280;36826;47.514;19.056;2022-09-23T14:48:55;100300.00;;;26.83;42.34
50859;BME280;36826;47.514;19.056;2022-09-23T14:51:28;100300.91;;;26.76;42.35
50859;BME280;36826;47.514;19.056;2022-09-23T14:53:55;100298.53;;;26.56;43.00
50859;BME280;36826;47.514;19.056;2022-09-23T14:56:40;100294.84;;;26.62;43.33
50859;BME280;36826;47.514;19.056;2022-09-23T14:59:25;100300.47;;;26.79;42.17
50859;BME280;36826;47.514;19.056;2022-09-23T15:01:51;100294.94;;;26.68;42.76
50859;BME280;36826;47.514;19.056;2022-09-23T15:04:26;100291.38;;;26.67;42.45
50859;BME280;36826;47.514;19.056;2022-09-23T15:07:01;100295.81;;;26.80;42.28
50859;BME280;36826;47.514;19.056;2022-09-23T15:09:30;100295.19;;;26.66;43.16
50859;BME280;36826;47.514;19.056;2022-09-23T15:11:58;100294.50;;;26.83;42.68